createdAt,value
2023-06-24T00:00:44.283Z,15.92
2023-06-24T00:01:44.601Z,15.93
2023-06-24T00:02:45.685Z,15.79
2023-06-24T00:03:44.933Z,15.79
2023-06-24T00:04:45.040Z,15.76
2023-06-24T00:05:45.971Z,15.85
2023-06-24T00:06:45.467Z,15.94
2023-06-24T00:07:46.308Z,15.81
2023-06-24T00:08:45.745Z,15.82
2023-06-24T00:09:45.976Z,15.88
2023-06-24T00:10:46.080Z,15.85
2023-06-24T00:11:46.268Z,15.81
2023-06-24T00:12:46.494Z,15.85
2023-06-24T00:13:46.710Z,15.75
2023-06-24T00:14:46.946Z,15.84
2023-06-24T00:15:47.189Z,15.85
2023-06-24T00:16:48.167Z,15.78
2023-06-24T00:17:48.247Z,15.79
2023-06-24T00:18:47.783Z,15.74
2023-06-24T00:19:50.113Z,15.82
2023-06-24T00:20:48.159Z,15.82
2023-06-24T00:21:48.342Z,15.86
2023-06-24T00:22:48.548Z,15.82
2023-06-24T00:23:48.725Z,15.84
2023-06-24T00:24:48.903Z,15.79
2023-06-24T00:25:50.193Z,15.78
2023-06-24T00:26:49.239Z,15.75
2023-06-24T00:27:49.442Z,15.72
2023-06-24T00:28:49.617Z,15.63
2023-06-24T00:29:49.790Z,15.66
2023-06-24T00:30:49.965Z,15.66
2023-06-24T00:31:50.253Z,15.68
2023-06-24T00:32:50.416Z,15.59
2023-06-24T00:33:51.209Z,15.63
2023-06-24T00:34:51.868Z,15.70
2023-06-24T00:35:50.937Z,15.67
2023-06-24T00:36:51.152Z,15.70
2023-06-24T00:37:52.186Z,15.64
2023-06-24T00:38:51.498Z,15.60
2023-06-24T00:39:52.708Z,15.60
2023-06-24T00:40:52.714Z,15.56
2023-06-24T00:41:52.118Z,15.52
2023-06-24T00:42:52.360Z,15.46
2023-06-24T00:43:52.525Z,15.67
2023-06-24T00:44:52.707Z,15.54
2023-06-24T00:45:52.900Z,15.61
2023-06-24T00:46:54.038Z,15.56
2023-06-24T00:47:53.753Z,15.51
2023-06-24T00:48:53.464Z,15.60
2023-06-24T00:49:54.200Z,15.60
2023-06-24T00:50:53.791Z,15.59
2023-06-24T00:51:53.942Z,15.41
2023-06-24T00:52:54.119Z,15.48
2023-06-24T00:53:54.277Z,15.49
2023-06-24T00:54:55.051Z,15.59
2023-06-24T00:55:54.666Z,15.48
2023-06-24T00:56:54.838Z,15.41
2023-06-24T00:57:55.049Z,15.48
2023-06-24T00:58:55.247Z,15.41
2023-06-24T00:59:55.723Z,15.45
2023-06-24T01:00:55.626Z,15.56
2023-06-24T01:01:56.713Z,15.57
2023-06-24T01:02:56.728Z,15.52
2023-06-24T01:03:56.185Z,15.52
2023-06-24T01:04:56.427Z,15.48
2023-06-24T01:05:58.185Z,15.48
2023-06-24T01:06:56.791Z,15.43
2023-06-24T01:07:57.182Z,15.48
2023-06-24T01:08:57.116Z,15.41
2023-06-24T01:09:57.341Z,15.43
2023-06-24T01:10:57.550Z,15.41
2023-06-24T01:11:57.806Z,15.48
2023-06-24T01:12:57.920Z,15.45
2023-06-24T01:13:58.049Z,15.48
2023-06-24T01:14:59.247Z,15.45
2023-06-24T01:15:58.390Z,15.45
2023-06-24T01:16:58.733Z,15.45
2023-06-24T01:17:59.757Z,15.33
2023-06-24T01:18:58.953Z,15.38
2023-06-24T01:19:59.153Z,15.38
2023-06-24T01:21:00.183Z,15.41
2023-06-24T01:21:59.620Z,15.41
2023-06-24T01:22:59.796Z,15.43
2023-06-24T01:24:00.676Z,15.43
2023-06-24T01:25:00.228Z,15.36
2023-06-24T01:26:01.215Z,15.48
2023-06-24T01:27:00.634Z,15.24
2023-06-24T01:28:01.684Z,15.27
2023-06-24T01:29:01.726Z,15.33
2023-06-24T01:30:01.167Z,15.26
2023-06-24T01:31:01.336Z,15.35
2023-06-24T01:32:03.177Z,15.38
2023-06-24T01:33:02.309Z,15.51
2023-06-24T01:34:03.560Z,15.36
2023-06-24T01:35:02.679Z,15.35
2023-06-24T01:36:02.216Z,15.41
2023-06-24T01:37:02.375Z,15.39
2023-06-24T01:38:02.514Z,15.39
2023-06-24T01:39:03.225Z,15.41
2023-06-24T01:40:02.850Z,15.39
2023-06-24T01:41:03.688Z,15.38
2023-06-24T01:42:04.048Z,15.39
2023-06-24T01:43:36.680Z,15.36
2023-06-24T01:44:04.274Z,15.38
2023-06-24T01:45:03.643Z,15.35
2023-06-24T01:46:03.777Z,15.33
2023-06-24T01:47:04.887Z,15.35
2023-06-24T01:48:04.088Z,15.26
2023-06-24T01:49:04.302Z,15.30
2023-06-24T01:50:04.476Z,15.38
2023-06-24T01:51:05.270Z,15.39
2023-06-24T01:52:04.784Z,15.33
2023-06-24T01:53:04.917Z,15.42
2023-06-24T01:54:05.079Z,15.33
2023-06-24T01:55:05.264Z,15.38
2023-06-24T01:56:05.426Z,15.43
2023-06-24T01:57:06.282Z,15.31
2023-06-24T01:58:05.809Z,15.31
2023-06-24T01:59:05.974Z,15.39
2023-06-24T02:00:06.130Z,15.31
2023-06-24T02:01:06.428Z,15.36
2023-06-24T02:02:06.519Z,15.35
2023-06-24T02:03:07.312Z,15.30
2023-06-24T02:04:07.786Z,15.31
2023-06-24T02:05:07.027Z,15.33
2023-06-24T02:06:07.199Z,15.27
2023-06-24T02:07:07.448Z,15.24
2023-06-24T02:08:08.742Z,15.15
2023-06-24T02:09:07.749Z,15.13
2023-06-24T02:10:07.928Z,15.17
2023-06-24T02:11:08.741Z,15.08
2023-06-24T02:12:08.262Z,15.15
2023-06-24T02:13:09.254Z,15.08
2023-06-24T02:14:09.279Z,15.13
2023-06-24T02:15:08.875Z,15.12
2023-06-24T02:16:09.769Z,15.23
2023-06-24T02:17:09.151Z,15.13
2023-06-24T02:18:10.252Z,15.17
2023-06-24T02:19:09.484Z,15.20
2023-06-24T02:20:10.243Z,15.11
2023-06-24T02:21:09.742Z,15.23
2023-06-24T02:22:09.903Z,15.08
2023-06-24T02:23:10.769Z,15.19
2023-06-24T02:24:10.749Z,15.09
2023-06-24T02:25:11.748Z,15.12
2023-06-24T02:26:10.493Z,15.13
2023-06-24T02:27:12.263Z,15.17
2023-06-24T02:28:10.864Z,15.13
2023-06-24T02:29:11.038Z,15.15
2023-06-24T02:30:11.750Z,15.13
2023-06-24T02:31:12.773Z,15.20
2023-06-24T02:32:11.541Z,15.06
2023-06-24T02:33:11.676Z,15.15
2023-06-24T02:34:14.750Z,15.20
2023-06-24T02:35:12.314Z,15.21
2023-06-24T02:36:12.102Z,15.17
2023-06-24T02:37:12.288Z,15.15
2023-06-24T02:38:12.430Z,15.21
2023-06-24T02:39:12.598Z,15.20
2023-06-24T02:40:12.774Z,15.19
2023-06-24T02:41:12.973Z,15.19
2023-06-24T02:42:13.151Z,15.21
2023-06-24T02:43:13.346Z,15.20
2023-06-24T02:44:13.542Z,15.09
2023-06-24T02:45:13.768Z,15.13
2023-06-24T02:46:16.398Z,15.23
2023-06-24T02:47:16.321Z,15.12
2023-06-24T02:48:15.303Z,15.12
2023-06-24T02:49:14.472Z,15.08
2023-06-24T02:50:14.695Z,15.13
2023-06-24T02:51:14.912Z,15.13
2023-06-24T02:52:15.093Z,15.17
2023-06-24T02:53:15.253Z,15.08
2023-06-24T02:54:15.440Z,15.19
2023-06-24T02:55:15.648Z,15.08
2023-06-24T02:56:16.321Z,15.11
2023-06-24T02:57:15.985Z,15.17
2023-06-24T02:58:17.747Z,15.19
2023-06-24T02:59:17.302Z,15.23
2023-06-24T03:00:18.902Z,15.24
2023-06-24T03:01:16.839Z,15.28
2023-06-24T03:02:17.030Z,15.31
2023-06-24T03:03:17.857Z,15.26
2023-06-24T03:04:17.454Z,15.31
2023-06-24T03:05:18.816Z,15.36
2023-06-24T03:06:18.968Z,15.24
2023-06-24T03:07:18.001Z,15.21
2023-06-24T03:08:19.260Z,15.26
2023-06-24T03:09:18.314Z,15.15
2023-06-24T03:10:18.507Z,15.11
2023-06-24T03:11:18.670Z,15.13
2023-06-24T03:12:18.911Z,15.08
2023-06-24T03:13:20.337Z,15.08
2023-06-24T03:14:19.344Z,15.17
2023-06-24T03:15:19.497Z,15.12
2023-06-24T03:16:21.300Z,15.09
2023-06-24T03:17:20.698Z,15.08
2023-06-24T03:18:20.816Z,15.08
2023-06-24T03:19:20.208Z,15.08
2023-06-24T03:20:21.262Z,15.08
2023-06-24T03:21:20.616Z,15.08
2023-06-24T03:22:20.788Z,15.13
2023-06-24T03:23:20.927Z,15.17
2023-06-24T03:24:21.173Z,15.12
2023-06-24T03:25:24.760Z,15.13
2023-06-24T03:26:22.260Z,15.17
2023-06-24T03:27:21.622Z,15.12
2023-06-24T03:28:21.792Z,15.23
2023-06-24T03:29:22.760Z,15.24
2023-06-24T03:30:22.760Z,15.26
2023-06-24T03:31:22.291Z,15.23
2023-06-24T03:32:23.474Z,15.21
2023-06-24T03:33:22.678Z,15.27
2023-06-24T03:34:22.815Z,15.30
2023-06-24T03:35:22.966Z,15.28
2023-06-24T03:36:23.132Z,15.17
2023-06-24T03:37:23.245Z,15.23
2023-06-24T03:38:23.368Z,15.17
2023-06-24T03:39:24.313Z,15.23
2023-06-24T03:40:24.258Z,15.19
2023-06-24T03:41:23.903Z,15.19
2023-06-24T03:42:24.766Z,15.24
2023-06-24T03:43:24.244Z,15.26
2023-06-24T03:44:25.383Z,15.31
2023-06-24T03:45:24.516Z,15.41
2023-06-24T03:46:24.740Z,15.52
2023-06-24T03:47:25.843Z,15.43
2023-06-24T03:48:25.097Z,15.52
2023-06-24T03:49:25.250Z,15.60
2023-06-24T03:50:27.262Z,15.70
2023-06-24T03:51:25.633Z,15.64
2023-06-24T03:52:25.808Z,15.60
2023-06-24T03:53:26.767Z,15.74
2023-06-24T03:54:26.148Z,15.76
2023-06-24T03:55:27.764Z,15.84
2023-06-24T03:56:26.832Z,15.81
2023-06-24T03:57:26.753Z,15.86
2023-06-24T03:58:28.775Z,16.01
2023-06-24T03:59:27.117Z,16.07
2023-06-24T04:00:48.267Z,16.01
2023-06-24T04:01:28.525Z,15.94
2023-06-24T04:02:27.586Z,16.11
2023-06-24T04:03:28.787Z,16.03
2023-06-24T04:04:27.950Z,16.07
2023-06-24T04:05:28.142Z,16.07
2023-06-24T04:06:28.301Z,16.14
2023-06-24T04:07:28.599Z,16.18
2023-06-24T04:08:28.720Z,16.25
2023-06-24T04:09:28.880Z,16.20
2023-06-24T04:10:29.053Z,16.23
2023-06-24T04:11:29.213Z,16.26
2023-06-24T04:12:30.314Z,16.20
2023-06-24T04:13:29.585Z,16.25
2023-06-24T04:14:30.312Z,16.30
2023-06-24T04:15:29.961Z,16.40
2023-06-24T04:16:30.100Z,16.33
2023-06-24T04:17:30.293Z,16.38
2023-06-24T04:18:30.470Z,16.33
2023-06-24T04:19:31.281Z,16.37
2023-06-24T04:20:30.817Z,16.41
2023-06-24T04:21:30.987Z,16.40
2023-06-24T04:22:31.118Z,16.42
2023-06-24T04:23:33.154Z,16.45
2023-06-24T04:24:31.492Z,16.49
2023-06-24T04:25:31.692Z,16.44
2023-06-24T04:26:32.818Z,16.52
2023-06-24T04:27:32.081Z,16.60
2023-06-24T04:28:32.241Z,16.60
2023-06-24T04:29:32.832Z,16.65
2023-06-24T04:30:32.584Z,16.59
2023-06-24T04:31:32.819Z,16.65
2023-06-24T04:32:32.955Z,16.71
2023-06-24T04:33:33.045Z,16.73
2023-06-24T04:34:33.195Z,16.77
2023-06-24T04:35:33.612Z,16.85
2023-06-24T04:36:34.799Z,16.93
2023-06-24T04:37:34.318Z,16.88
2023-06-24T04:38:33.863Z,16.90
2023-06-24T04:39:34.819Z,17.07
2023-06-24T04:40:34.199Z,17.04
2023-06-24T04:41:35.290Z,17.11
2023-06-24T04:42:34.534Z,17.17
2023-06-24T04:43:36.300Z,17.18
2023-06-24T04:44:35.321Z,17.15
2023-06-24T04:45:35.387Z,17.14
2023-06-24T04:46:35.343Z,17.23
2023-06-24T04:47:35.326Z,17.17
2023-06-24T04:48:36.342Z,17.26
2023-06-24T04:49:37.189Z,17.20
2023-06-24T04:50:36.038Z,17.25
2023-06-24T04:51:36.041Z,17.32
2023-06-24T04:52:36.341Z,17.23
2023-06-24T04:53:36.485Z,17.20
2023-06-24T04:54:37.328Z,17.22
2023-06-24T04:55:37.103Z,17.15
2023-06-24T04:56:37.065Z,17.32
2023-06-24T04:57:37.175Z,17.20
2023-06-24T04:58:37.362Z,17.26
2023-06-24T04:59:37.552Z,17.36
2023-06-24T05:00:38.392Z,17.30
2023-06-24T05:01:38.654Z,17.30
2023-06-24T05:02:38.836Z,17.53
2023-06-24T05:03:38.813Z,17.48
2023-06-24T05:04:39.342Z,17.46
2023-06-24T05:05:38.923Z,17.64
2023-06-24T05:06:38.883Z,17.59
2023-06-24T05:07:38.965Z,17.67
2023-06-24T05:08:39.168Z,17.87
2023-06-24T05:09:39.352Z,17.76
2023-06-24T05:10:40.333Z,17.88
2023-06-24T05:11:39.810Z,17.88
2023-06-24T05:12:40.792Z,18.06
2023-06-24T05:13:40.069Z,18.12
2023-06-24T05:14:40.442Z,18.21
2023-06-24T05:15:41.297Z,18.39
2023-06-24T05:16:40.603Z,18.46
2023-06-24T05:17:41.841Z,18.58
2023-06-24T05:18:41.791Z,18.64
2023-06-24T05:19:41.800Z,18.77
2023-06-24T05:20:42.291Z,18.83
2023-06-24T05:21:41.857Z,18.97
2023-06-24T05:22:41.926Z,19.13
2023-06-24T05:23:42.914Z,19.24
2023-06-24T05:24:42.846Z,19.39
2023-06-24T05:25:43.301Z,19.50
2023-06-24T05:26:42.732Z,19.65
2023-06-24T05:27:42.940Z,19.66
2023-06-24T05:28:44.299Z,19.83
2023-06-24T05:29:43.837Z,19.98
2023-06-24T05:30:44.302Z,20.03
2023-06-24T05:31:44.344Z,20.05
2023-06-24T05:32:44.392Z,20.15
2023-06-24T05:33:44.043Z,20.16
2023-06-24T05:34:44.203Z,20.25
2023-06-24T05:35:44.358Z,20.16
2023-06-24T05:36:44.519Z,20.10
2023-06-24T05:37:45.361Z,20.09
2023-06-24T05:38:46.300Z,20.18
2023-06-24T05:39:45.056Z,20.23
2023-06-24T05:40:46.799Z,20.23
2023-06-24T05:41:45.420Z,20.18
2023-06-24T05:42:46.173Z,20.20
2023-06-24T05:43:45.815Z,20.33
2023-06-24T05:44:46.849Z,20.35
2023-06-24T05:45:46.803Z,20.47
2023-06-24T05:46:46.343Z,20.54
2023-06-24T05:47:47.366Z,20.50
2023-06-24T05:48:47.354Z,20.62
2023-06-24T05:49:46.766Z,20.64
2023-06-24T05:50:48.808Z,20.76
2023-06-24T05:51:47.106Z,20.84
2023-06-24T05:52:48.310Z,20.87
2023-06-24T05:53:48.306Z,20.89
2023-06-24T05:54:47.559Z,20.96
2023-06-24T05:55:47.860Z,21.09
2023-06-24T05:56:47.920Z,21.05
2023-06-24T05:57:48.083Z,21.23
2023-06-24T05:58:48.250Z,21.20
2023-06-24T05:59:48.432Z,21.34
2023-06-24T06:00:48.592Z,21.36
2023-06-24T06:01:48.853Z,21.38
2023-06-24T06:02:49.942Z,21.50
2023-06-24T06:03:49.163Z,21.61
2023-06-24T06:04:49.325Z,21.54
2023-06-24T06:05:49.515Z,21.66
2023-06-24T06:06:49.741Z,21.53
2023-06-24T06:07:49.938Z,21.53
2023-06-24T06:08:50.131Z,21.54
2023-06-24T06:09:50.330Z,21.59
2023-06-24T06:10:52.970Z,21.54
2023-06-24T06:11:51.309Z,21.61
2023-06-24T06:12:51.368Z,21.56
2023-06-24T06:13:52.808Z,21.57
2023-06-24T06:14:51.232Z,21.66
2023-06-24T06:15:51.427Z,21.54
2023-06-24T06:16:51.599Z,21.57
2023-06-24T06:17:52.342Z,21.51
2023-06-24T06:18:51.903Z,21.48
2023-06-24T06:19:52.812Z,21.45
2023-06-24T06:20:52.257Z,21.44
2023-06-24T06:21:52.357Z,21.50
2023-06-24T06:22:53.812Z,21.45
2023-06-24T06:23:53.307Z,21.57
2023-06-24T06:24:55.825Z,21.57
2023-06-24T06:25:53.180Z,21.53
2023-06-24T06:26:53.357Z,21.56
2023-06-24T06:27:53.585Z,21.64
2023-06-24T06:28:53.754Z,21.69
2023-06-24T06:29:53.912Z,21.74
2023-06-24T06:30:54.858Z,21.72
2023-06-24T06:31:54.930Z,21.82
2023-06-24T06:32:54.945Z,21.92
2023-06-24T06:33:55.329Z,21.94
2023-06-24T06:34:54.750Z,21.99
2023-06-24T06:35:54.938Z,22.06
2023-06-24T06:36:55.091Z,22.20
2023-06-24T06:37:57.471Z,22.27
2023-06-24T06:38:56.312Z,22.43
2023-06-24T06:39:56.624Z,22.60
2023-06-24T06:40:55.779Z,22.53
2023-06-24T06:41:55.948Z,22.44
2023-06-24T06:42:56.825Z,22.60
2023-06-24T06:43:56.380Z,22.68
2023-06-24T06:44:56.592Z,22.69
2023-06-24T06:45:57.467Z,22.80
2023-06-24T06:46:57.880Z,22.67
2023-06-24T06:47:57.211Z,22.74
2023-06-24T06:48:57.419Z,22.68
2023-06-24T06:49:58.343Z,22.74
2023-06-24T06:50:57.783Z,22.84
2023-06-24T06:51:58.824Z,22.84
2023-06-24T06:52:59.251Z,22.75
2023-06-24T06:53:59.302Z,22.82
2023-06-24T06:54:58.495Z,22.84
2023-06-24T06:55:58.710Z,22.86
2023-06-24T06:56:59.837Z,22.93
2023-06-24T06:57:59.116Z,22.94
2023-06-24T06:58:59.836Z,23.05
2023-06-24T06:59:59.505Z,23.05
2023-06-24T07:00:59.687Z,22.94
2023-06-24T07:01:59.872Z,22.97
2023-06-24T07:03:00.869Z,22.96
2023-06-24T07:04:00.283Z,23.04
2023-06-24T07:05:00.456Z,23.04
2023-06-24T07:06:01.355Z,23.07
2023-06-24T07:07:01.437Z,23.08
2023-06-24T07:08:01.001Z,23.22
2023-06-24T07:09:01.826Z,23.19
2023-06-24T07:10:02.334Z,23.27
2023-06-24T07:11:02.357Z,23.38
2023-06-24T07:12:02.633Z,23.34
2023-06-24T07:13:01.783Z,23.40
2023-06-24T07:14:01.975Z,23.31
2023-06-24T07:15:02.416Z,23.43
2023-06-24T07:16:02.365Z,23.43
2023-06-24T07:17:03.380Z,23.42
2023-06-24T07:18:02.778Z,23.39
2023-06-24T07:19:02.874Z,23.42
2023-06-24T07:20:03.111Z,23.35
2023-06-24T07:21:03.199Z,23.42
2023-06-24T07:22:03.463Z,23.29
2023-06-24T07:23:04.382Z,23.40
2023-06-24T07:24:03.798Z,23.35
2023-06-24T07:25:04.020Z,23.26
2023-06-24T07:26:05.706Z,23.43
2023-06-24T07:27:04.267Z,23.38
2023-06-24T07:28:04.471Z,23.35
2023-06-24T07:29:09.280Z,23.24
2023-06-24T07:30:05.876Z,23.23
2023-06-24T07:31:05.062Z,23.23
2023-06-24T07:32:05.156Z,23.12
2023-06-24T07:33:05.425Z,23.22
2023-06-24T07:34:06.453Z,23.26
2023-06-24T07:35:06.370Z,23.26
2023-06-24T07:36:05.898Z,23.24
2023-06-24T07:37:15.252Z,23.15
2023-06-24T07:38:08.249Z,23.24
2023-06-24T07:39:06.446Z,23.27
2023-06-24T07:40:07.383Z,23.15
2023-06-24T07:41:06.808Z,23.24
2023-06-24T07:42:06.979Z,23.23
2023-06-24T07:43:07.162Z,23.34
2023-06-24T07:44:07.346Z,23.43
2023-06-24T07:45:07.548Z,23.45
2023-06-24T07:46:08.340Z,23.47
2023-06-24T07:47:09.890Z,23.57
2023-06-24T07:48:08.129Z,23.61
2023-06-24T07:49:09.345Z,23.76
2023-06-24T07:50:09.386Z,23.76
2023-06-24T07:51:08.647Z,23.80
2023-06-24T07:52:08.823Z,23.87
2023-06-24T07:53:09.850Z,23.90
2023-06-24T07:54:09.126Z,23.97
2023-06-24T07:55:10.214Z,23.95
2023-06-24T07:56:09.499Z,23.87
2023-06-24T07:57:10.345Z,23.90
2023-06-24T07:58:09.866Z,23.94
2023-06-24T07:59:10.021Z,24.01
2023-06-24T08:00:10.178Z,24.01
2023-06-24T08:01:10.326Z,24.12
2023-06-24T08:02:10.524Z,24.02
2023-06-24T08:03:11.058Z,24.04
2023-06-24T08:04:11.421Z,24.07
2023-06-24T08:05:11.857Z,24.10
2023-06-24T08:06:11.849Z,24.10
2023-06-24T08:07:12.447Z,23.95
2023-06-24T08:08:13.719Z,23.86
2023-06-24T08:09:13.893Z,23.87
2023-06-24T08:10:12.123Z,24.05
2023-06-24T08:11:12.314Z,24.07
2023-06-24T08:12:12.467Z,24.19
2023-06-24T08:13:13.656Z,24.24
2023-06-24T08:14:12.791Z,24.23
2023-06-24T08:15:12.972Z,24.29
2023-06-24T08:16:13.123Z,24.29
2023-06-24T08:17:13.304Z,24.24
2023-06-24T08:18:14.225Z,24.35
2023-06-24T08:19:13.647Z,24.45
2023-06-24T08:20:13.917Z,24.53
2023-06-24T08:21:14.903Z,24.53
2023-06-24T08:22:14.866Z,24.52
2023-06-24T08:23:14.396Z,24.49
2023-06-24T08:24:14.566Z,24.49
2023-06-24T08:25:17.868Z,24.60
2023-06-24T08:26:17.600Z,24.69
2023-06-24T08:27:17.866Z,24.71
2023-06-24T08:28:15.352Z,24.79
2023-06-24T08:29:15.543Z,24.76
2023-06-24T08:30:15.700Z,24.73
2023-06-24T08:31:15.937Z,24.73
2023-06-24T08:32:16.862Z,24.87
2023-06-24T08:33:16.748Z,24.79
2023-06-24T08:34:16.362Z,24.79
2023-06-24T08:35:16.526Z,24.92
2023-06-24T08:36:16.687Z,24.88
2023-06-24T08:37:16.853Z,24.87
2023-06-24T08:38:17.868Z,24.80
2023-06-24T08:39:17.455Z,24.63
2023-06-24T08:40:17.393Z,24.53
2023-06-24T08:41:17.565Z,24.50
2023-06-24T08:42:17.739Z,24.50
2023-06-24T08:43:18.415Z,24.52
2023-06-24T08:44:18.082Z,24.50
2023-06-24T08:45:18.420Z,24.47
2023-06-24T08:46:20.371Z,24.53
2023-06-24T08:47:20.453Z,24.82
2023-06-24T08:48:18.879Z,25.00
2023-06-24T08:49:19.537Z,25.00
2023-06-24T08:50:19.196Z,24.76
2023-06-24T08:51:21.743Z,24.53
2023-06-24T08:52:20.386Z,24.37
2023-06-24T08:53:19.802Z,24.39
2023-06-24T08:54:19.978Z,24.41
2023-06-24T08:55:21.571Z,24.50
2023-06-24T08:56:20.363Z,24.53
2023-06-24T08:57:22.381Z,24.53
2023-06-24T08:58:21.441Z,24.53
2023-06-24T08:59:20.879Z,24.44
2023-06-24T09:00:21.091Z,24.38
2023-06-24T09:01:23.959Z,24.38
2023-06-24T09:02:23.590Z,24.17
2023-06-24T09:03:21.786Z,24.17
2023-06-24T09:04:21.857Z,24.05
2023-06-24T09:05:22.055Z,24.01
2023-06-24T09:06:22.250Z,23.98
2023-06-24T09:07:23.401Z,23.94
2023-06-24T09:08:22.564Z,23.89
2023-06-24T09:09:23.425Z,23.86
2023-06-24T09:10:24.883Z,23.89
2023-06-24T09:11:23.155Z,23.87
2023-06-24T09:12:23.324Z,23.77
2023-06-24T09:13:23.490Z,23.79
2023-06-24T09:14:23.645Z,23.95
2023-06-24T09:15:23.797Z,23.89
2023-06-24T09:16:24.882Z,23.92
2023-06-24T09:17:24.490Z,23.83
2023-06-24T09:18:24.442Z,23.82
2023-06-24T09:19:25.881Z,23.87
2023-06-24T09:20:24.628Z,23.85
2023-06-24T09:21:25.397Z,23.75
2023-06-24T09:22:24.910Z,23.80
2023-06-24T09:23:25.073Z,23.86
2023-06-24T09:24:25.935Z,23.97
2023-06-24T09:25:26.420Z,24.12
2023-06-24T09:26:27.433Z,24.16
2023-06-24T09:27:25.923Z,24.27
2023-06-24T09:28:26.892Z,24.45
2023-06-24T09:29:28.131Z,24.52
2023-06-24T09:30:27.431Z,24.64
2023-06-24T09:31:26.732Z,24.64
2023-06-24T09:32:27.068Z,24.54
2023-06-24T09:33:27.153Z,24.57
2023-06-24T09:34:27.297Z,24.47
2023-06-24T09:35:27.427Z,24.52
2023-06-24T09:36:29.244Z,24.49
2023-06-24T09:37:27.799Z,24.49
2023-06-24T09:38:28.448Z,24.44
2023-06-24T09:39:30.383Z,24.71
2023-06-24T09:40:29.941Z,24.82
2023-06-24T09:41:28.457Z,24.91
2023-06-24T09:42:28.657Z,25.02
2023-06-24T09:43:28.844Z,25.15
2023-06-24T09:44:29.023Z,25.25
2023-06-24T09:45:29.974Z,25.27
2023-06-24T09:46:29.461Z,25.38
2023-06-24T09:47:30.466Z,25.39
2023-06-24T09:48:29.883Z,25.27
2023-06-24T09:49:30.758Z,25.01
2023-06-24T09:50:30.296Z,24.77
2023-06-24T09:51:30.957Z,24.73
2023-06-24T09:52:30.637Z,24.64
2023-06-24T09:53:31.437Z,24.52
2023-06-24T09:54:34.190Z,24.61
2023-06-24T09:55:33.048Z,24.45
2023-06-24T09:56:31.379Z,24.41
2023-06-24T09:57:32.457Z,24.16
2023-06-24T09:58:31.776Z,24.19
2023-06-24T09:59:32.941Z,23.97
2023-06-24T10:00:32.145Z,23.86
2023-06-24T10:01:33.303Z,23.79
2023-06-24T10:02:34.159Z,23.77
2023-06-24T10:03:32.755Z,23.77
2023-06-24T10:04:32.850Z,23.87
2023-06-24T10:05:33.663Z,23.85
2023-06-24T10:06:34.408Z,23.79
2023-06-24T10:07:33.421Z,23.87
2023-06-24T10:08:33.604Z,23.75
2023-06-24T10:09:34.920Z,23.72
2023-06-24T10:10:34.231Z,23.70
2023-06-24T10:11:34.112Z,23.64
2023-06-24T10:12:34.910Z,23.75
2023-06-24T10:13:34.407Z,23.77
2023-06-24T10:14:35.451Z,23.87
2023-06-24T10:15:34.772Z,23.92
2023-06-24T10:16:34.968Z,23.76
2023-06-24T10:17:35.235Z,23.85
2023-06-24T10:18:35.378Z,23.79
2023-06-24T10:19:35.467Z,23.83
2023-06-24T10:20:35.795Z,24.01
2023-06-24T10:21:35.861Z,24.13
2023-06-24T10:22:36.061Z,24.20
2023-06-24T10:23:36.230Z,24.37
2023-06-24T10:24:36.969Z,24.56
2023-06-24T10:25:36.525Z,24.69
2023-06-24T10:26:36.701Z,24.82
2023-06-24T10:27:38.075Z,24.97
2023-06-24T10:28:37.132Z,24.98
2023-06-24T10:29:37.254Z,25.06
2023-06-24T10:30:37.739Z,25.15
2023-06-24T10:31:38.406Z,25.24
2023-06-24T10:32:38.005Z,25.35
2023-06-24T10:33:38.135Z,25.32
2023-06-24T10:34:38.231Z,25.37
2023-06-24T10:35:38.465Z,25.47
2023-06-24T10:36:38.712Z,25.50
2023-06-24T10:37:39.461Z,25.50
2023-06-24T10:38:39.056Z,25.67
2023-06-24T10:39:39.292Z,25.69
2023-06-24T10:40:40.427Z,25.71
2023-06-24T10:41:39.758Z,25.74
2023-06-24T10:42:40.083Z,25.72
2023-06-24T10:43:40.931Z,25.83
2023-06-24T10:44:40.965Z,25.89
2023-06-24T10:45:41.002Z,25.83
2023-06-24T10:46:40.742Z,25.93
2023-06-24T10:47:40.971Z,25.93
2023-06-24T10:48:41.966Z,25.97
2023-06-24T10:49:41.926Z,26.01
2023-06-24T10:50:41.959Z,25.99
2023-06-24T10:51:41.686Z,26.01
2023-06-24T10:52:41.897Z,25.99
2023-06-24T10:53:42.927Z,26.01
2023-06-24T10:54:42.255Z,26.02
2023-06-24T10:55:42.319Z,26.01
2023-06-24T10:56:43.430Z,25.90
2023-06-24T10:57:43.932Z,25.74
2023-06-24T10:58:42.976Z,25.86
2023-06-24T10:59:43.963Z,25.91
2023-06-24T11:00:43.988Z,26.01
2023-06-24T11:01:44.374Z,26.04
2023-06-24T11:02:43.736Z,26.08
2023-06-24T11:03:43.881Z,26.24
2023-06-24T11:04:44.055Z,26.35
2023-06-24T11:05:44.474Z,26.49
2023-06-24T11:06:44.426Z,26.44
2023-06-24T11:07:44.620Z,26.58
2023-06-24T11:08:45.471Z,26.57
2023-06-24T11:09:45.046Z,26.73
2023-06-24T11:10:45.289Z,26.86
2023-06-24T11:11:46.338Z,26.86
2023-06-24T11:12:46.466Z,26.84
2023-06-24T11:13:45.768Z,26.74
2023-06-24T11:14:45.950Z,26.55
2023-06-24T11:15:46.488Z,26.54
2023-06-24T11:16:46.977Z,26.55
2023-06-24T11:17:46.555Z,26.73
2023-06-24T11:18:47.437Z,26.94
2023-06-24T11:19:47.491Z,26.81
2023-06-24T11:20:47.078Z,26.95
2023-06-24T11:21:47.270Z,26.87
2023-06-24T11:22:47.468Z,26.95
2023-06-24T11:23:47.650Z,27.02
2023-06-24T11:24:47.842Z,27.10
2023-06-24T11:25:48.967Z,27.02
2023-06-24T11:26:49.282Z,27.10
2023-06-24T11:27:48.453Z,27.14
2023-06-24T11:28:48.645Z,27.28
2023-06-24T11:29:48.834Z,27.39
2023-06-24T11:30:50.103Z,27.42
2023-06-24T11:31:49.157Z,27.39
2023-06-24T11:32:49.393Z,27.36
2023-06-24T11:33:49.516Z,27.35
2023-06-24T11:34:50.933Z,27.29
2023-06-24T11:35:49.824Z,27.11
2023-06-24T11:36:50.939Z,26.83
2023-06-24T11:37:50.267Z,26.65
2023-06-24T11:38:51.932Z,26.55
2023-06-24T11:39:52.307Z,26.62
2023-06-24T11:40:50.842Z,26.52
2023-06-24T11:41:51.014Z,26.69
2023-06-24T11:42:51.190Z,26.91
2023-06-24T11:43:51.947Z,27.04
2023-06-24T11:44:51.607Z,27.17
2023-06-24T11:45:51.804Z,27.28
2023-06-24T11:46:52.030Z,27.09
2023-06-24T11:47:52.225Z,26.81
2023-06-24T11:48:52.949Z,26.61
2023-06-24T11:49:52.499Z,26.57
2023-06-24T11:50:52.723Z,26.37
2023-06-24T11:51:52.900Z,26.28
2023-06-24T11:52:53.069Z,26.06
2023-06-24T11:53:53.312Z,25.98
2023-06-24T11:54:53.547Z,25.68
2023-06-24T11:55:53.736Z,25.56
2023-06-24T11:56:53.950Z,25.52
2023-06-24T11:57:54.130Z,25.32
2023-06-24T11:58:54.341Z,25.35
2023-06-24T11:59:54.586Z,25.39
2023-06-24T12:00:54.810Z,25.28
2023-06-24T12:01:54.914Z,25.38
2023-06-24T12:02:55.199Z,25.42
2023-06-24T12:03:56.141Z,25.44
2023-06-24T12:04:55.568Z,25.46
2023-06-24T12:05:56.450Z,25.44
2023-06-24T12:06:56.331Z,25.39
2023-06-24T12:07:56.452Z,25.43
2023-06-24T12:08:57.451Z,25.31
2023-06-24T12:09:56.507Z,25.32
2023-06-24T12:10:56.541Z,25.25
2023-06-24T12:11:56.723Z,25.20
2023-06-24T12:12:57.475Z,25.17
2023-06-24T12:13:57.120Z,25.46
2023-06-24T12:14:57.943Z,25.61
2023-06-24T12:15:58.437Z,25.87
2023-06-24T12:16:57.676Z,26.02
2023-06-24T12:17:57.864Z,26.29
2023-06-24T12:18:57.943Z,26.54
2023-06-24T12:19:58.118Z,26.80
2023-06-24T12:20:58.260Z,27.09
2023-06-24T12:21:58.400Z,27.20
2023-06-24T12:22:58.558Z,27.36
2023-06-24T12:23:58.673Z,27.47
2023-06-24T12:24:58.813Z,27.62
2023-06-24T12:25:59.515Z,27.66
2023-06-24T12:27:00.456Z,27.79
2023-06-24T12:27:59.291Z,27.84
2023-06-24T12:28:59.449Z,27.85
2023-06-24T12:29:59.601Z,27.94
2023-06-24T12:30:59.746Z,27.94
2023-06-24T12:32:00.061Z,28.11
2023-06-24T12:33:01.177Z,28.09
2023-06-24T12:34:00.302Z,28.10
2023-06-24T12:35:00.442Z,27.98
2023-06-24T12:36:01.513Z,28.04
2023-06-24T12:37:00.782Z,28.11
2023-06-24T12:38:01.520Z,28.19
2023-06-24T12:39:01.203Z,28.07
2023-06-24T12:40:01.392Z,27.96
2023-06-24T12:41:02.512Z,27.84
2023-06-24T12:42:01.789Z,27.84
2023-06-24T12:43:01.938Z,27.79
2023-06-24T12:44:03.483Z,27.84
2023-06-24T12:45:03.472Z,27.85
2023-06-24T12:46:02.520Z,27.96
2023-06-24T12:47:02.671Z,28.19
2023-06-24T12:48:02.860Z,28.33
2023-06-24T12:49:04.025Z,28.14
2023-06-24T12:50:04.381Z,27.94
2023-06-24T12:51:03.337Z,27.86
2023-06-24T12:52:04.468Z,27.54
2023-06-24T12:53:03.598Z,27.48
2023-06-24T12:54:03.794Z,27.67
2023-06-24T12:55:03.990Z,27.85